Time;durP1;ratioP1;P1;durP2;ratioP2;P2;SDS_P1;SDS_P2;PMS_P1;PMS_P2;Temp;Humidity;BMP_temperature;BMP_pressure;BME280_temperature;BME280_humidity;BME280_pressure;Samples;Min_cycle;Max_cycle;Signal;HPM_P1;HPM_P2
2023/09/26 00:01:44;;;;;;;;;13.33;13.33;;;;;;;;5095624;27;45453;-81
2023/09/26 00:04:09;;;;;;;;;10.67;10.67;;;;;;;;5097589;27;46369;-80
2023/09/26 00:06:35;;;;;;;;;11.33;8.67;;;;;;;;5089862;27;45604;-79
2023/09/26 00:09:00;;;;;;;;;10.33;7.00;;;;;;;;5094069;27;45540;-80
2023/09/26 00:11:27;;;;;;;;;12.67;10.67;;;;;;;;5096981;27;45308;-81
2023/09/26 00:13:52;;;;;;;;;9.33;8.33;;;;;;;;5097673;27;46569;-80
2023/09/26 00:16:17;;;;;;;;;12.00;10.67;;;;;;;;5085875;27;45376;-81
2023/09/26 00:18:43;;;;;;;;;13.33;9.67;;;;;;;;5096620;27;45583;-82
2023/09/26 00:21:08;;;;;;;;;8.67;8.33;;;;;;;;5086660;27;45989;-82
2023/09/26 00:23:35;;;;;;;;;13.00;9.33;;;;;;;;5089991;27;47913;-80
2023/09/26 00:26:00;;;;;;;;;17.67;9.33;;;;;;;;5095896;27;45441;-81
2023/09/26 00:28:25;;;;;;;;;9.33;8.00;;;;;;;;5097551;27;45523;-80
2023/09/26 00:30:50;;;;;;;;;10.00;8.67;;;;;;;;5096726;27;45575;-81
2023/09/26 00:33:16;;;;;;;;;9.67;8.67;;;;;;;;5095637;27;45773;-80
2023/09/26 00:35:41;;;;;;;;;10.67;9.67;;;;;;;;5095429;27;45531;-81
2023/09/26 00:38:06;;;;;;;;;10.33;10.33;;;;;;;;5093311;27;45829;-81
2023/09/26 00:40:33;;;;;;;;;10.67;9.67;;;;;;;;5095872;27;45688;-81
2023/09/26 00:42:59;;;;;;;;;8.00;8.00;;;;;;;;5083641;27;46110;-83
2023/09/26 00:45:25;;;;;;;;;11.00;8.67;;;;;;;;5098137;27;45487;-81
2023/09/26 00:47:51;;;;;;;;;10.00;9.67;;;;;;;;5103487;27;45258;-81
2023/09/26 00:50:16;;;;;;;;;14.33;12.00;;;;;;;;5090457;27;46071;-81
2023/09/26 00:52:46;;;;;;;;;11.33;7.33;;;;;;;;5086749;27;45322;-82
2023/09/26 00:55:13;;;;;;;;;10.67;9.33;;;;;;;;5096477;27;45492;-82
2023/09/26 00:57:39;;;;;;;;;9.67;8.67;;;;;;;;5086140;27;45457;-82
2023/09/26 01:00:04;;;;;;;;;12.33;10.33;;;;;;;;5079948;27;45764;-81
2023/09/26 01:02:41;;;;;;;;;11.33;11.33;;;;;;;;5108346;27;45736;-72
2023/09/26 01:05:08;;;;;;;;;11.00;8.00;;;;;;;;5098520;27;45338;-73
2023/09/26 01:07:33;;;;;;;;;11.67;9.00;;;;;;;;5095670;27;45683;-73
2023/09/26 01:09:59;;;;;;;;;11.67;9.00;;;;;;;;5090759;27;45515;-73
2023/09/26 01:12:26;;;;;;;;;15.67;12.00;;;;;;;;5103344;27;46158;-72
2023/09/26 01:14:51;;;;;;;;;9.00;8.33;;;;;;;;5109939;27;45820;-73
2023/09/26 01:17:16;;;;;;;;;9.33;9.33;;;;;;;;5112236;27;45367;-72
2023/09/26 01:19:42;;;;;;;;;9.67;9.67;;;;;;;;5095154;27;45407;-73
2023/09/26 01:22:07;;;;;;;;;11.00;8.33;;;;;;;;5099792;27;48283;-74
2023/09/26 01:24:33;;;;;;;;;10.00;10.00;;;;;;;;5101439;27;45817;-73
2023/09/26 01:26:59;;;;;;;;;10.67;9.33;;;;;;;;5090833;27;45373;-72
2023/09/26 01:29:24;;;;;;;;;9.33;9.33;;;;;;;;5083187;27;45791;-73
2023/09/26 01:31:49;;;;;;;;;10.67;10.67;;;;;;;;5097804;27;46410;-72
2023/09/26 01:34:14;;;;;;;;;10.33;10.33;;;;;;;;5096401;27;45742;-73
2023/09/26 01:36:40;;;;;;;;;9.67;7.67;;;;;;;;5094466;27;45751;-73
2023/09/26 01:39:05;;;;;;;;;14.00;10.67;;;;;;;;5105965;27;45963;-69
2023/09/26 01:41:31;;;;;;;;;8.67;8.67;;;;;;;;5101788;27;48411;-69
2023/09/26 01:43:56;;;;;;;;;10.00;8.67;;;;;;;;5105851;27;45410;-69
2023/09/26 01:46:22;;;;;;;;;11.33;10.67;;;;;;;;5092622;27;45357;-68
2023/09/26 01:48:47;;;;;;;;;7.67;7.00;;;;;;;;5093590;27;45751;-73
2023/09/26 01:51:15;;;;;;;;;13.33;10.67;;;;;;;;5086270;27;46377;-72
2023/09/26 01:53:40;;;;;;;;;18.00;14.33;;;;;;;;5089887;27;45630;-72
2023/09/26 01:56:06;;;;;;;;;18.67;16.33;;;;;;;;5098540;27;45760;-72
2023/09/26 01:58:32;;;;;;;;;12.33;11.33;;;;;;;;5097847;27;45554;-74
2023/09/26 02:00:57;;;;;;;;;15.00;11.67;;;;;;;;5100295;27;45935;-72
2023/09/26 02:03:23;;;;;;;;;11.67;11.67;;;;;;;;5095576;27;45318;-71
2023/09/26 02:05:48;;;;;;;;;11.00;10.00;;;;;;;;5091573;27;45510;-72
2023/09/26 02:08:15;;;;;;;;;14.67;11.67;;;;;;;;5091565;27;45352;-72
2023/09/26 02:10:41;;;;;;;;;13.67;13.67;;;;;;;;5098018;27;46486;-72
2023/09/26 02:13:06;;;;;;;;;8.67;8.67;;;;;;;;5096501;27;45446;-74
2023/09/26 02:15:31;;;;;;;;;10.33;9.00;;;;;;;;5078642;27;45564;-72
2023/09/26 02:17:57;;;;;;;;;12.67;11.67;;;;;;;;5084377;27;45374;-72
2023/09/26 02:20:22;;;;;;;;;12.33;10.00;;;;;;;;5081752;27;48259;-71
2023/09/26 02:22:51;;;;;;;;;12.33;12.33;;;;;;;;5070275;27;45506;-71
2023/09/26 02:25:18;;;;;;;;;7.00;7.00;;;;;;;;5092908;27;45511;-72
2023/09/26 02:27:44;;;;;;;;;14.00;11.33;;;;;;;;5086753;27;45767;-72
2023/09/26 02:30:11;;;;;;;;;8.33;7.67;;;;;;;;5085542;27;45448;-73
2023/09/26 02:32:36;;;;;;;;;10.33;10.00;;;;;;;;5097062;27;45640;-69
2023/09/26 02:35:04;;;;;;;;;13.67;9.67;;;;;;;;5095184;27;45639;-72
2023/09/26 02:37:29;;;;;;;;;8.33;7.33;;;;;;;;5079555;27;45316;-69
2023/09/26 02:39:54;;;;;;;;;13.33;10.67;;;;;;;;5080809;27;47054;-72
2023/09/26 02:42:20;;;;;;;;;9.33;8.00;;;;;;;;5082615;27;45587;-71
2023/09/26 02:44:45;;;;;;;;;10.33;9.00;;;;;;;;5077499;27;45571;-72
2023/09/26 02:47:10;;;;;;;;;10.00;9.33;;;;;;;;5083868;27;45619;-72
2023/09/26 02:49:36;;;;;;;;;11.33;10.33;;;;;;;;5074572;27;45978;-73
2023/09/26 02:52:01;;;;;;;;;10.33;8.00;;;;;;;;5075124;27;45462;-71
2023/09/26 02:54:26;;;;;;;;;12.33;11.33;;;;;;;;5079328;27;45699;-72
2023/09/26 02:56:52;;;;;;;;;8.67;7.67;;;;;;;;5080304;27;45684;-73
2023/09/26 02:59:17;;;;;;;;;9.67;8.33;;;;;;;;5084830;27;46376;-72
2023/09/26 03:01:42;;;;;;;;;8.00;8.00;;;;;;;;5080681;27;45384;-72
2023/09/26 03:04:08;;;;;;;;;8.33;7.67;;;;;;;;5063527;27;45760;-73
2023/09/26 03:06:33;;;;;;;;;11.33;10.00;;;;;;;;5083629;27;45463;-72
2023/09/26 03:08:58;;;;;;;;;9.33;8.33;;;;;;;;5090596;27;45485;-73
2023/09/26 03:11:24;;;;;;;;;13.67;11.00;;;;;;;;5072919;27;45569;-71
2023/09/26 03:13:49;;;;;;;;;12.00;12.00;;;;;;;;5075714;27;45503;-73
2023/09/26 03:16:14;;;;;;;;;11.67;10.67;;;;;;;;5087447;27;45509;-72
2023/09/26 03:18:40;;;;;;;;;9.67;8.33;;;;;;;;5086177;27;46224;-72
2023/09/26 03:21:05;;;;;;;;;14.00;10.67;;;;;;;;5075390;27;46050;-72
2023/09/26 03:23:31;;;;;;;;;12.33;10.33;;;;;;;;5076650;27;45388;-71
2023/09/26 03:25:56;;;;;;;;;11.33;11.00;;;;;;;;5074268;27;46943;-71
2023/09/26 03:28:21;;;;;;;;;12.00;11.00;;;;;;;;5069709;27;46275;-72
2023/09/26 03:30:47;;;;;;;;;15.67;12.67;;;;;;;;5078317;27;45793;-73
2023/09/26 03:33:12;;;;;;;;;16.67;14.33;;;;;;;;5078844;27;45356;-73
2023/09/26 03:35:37;;;;;;;;;17.33;14.67;;;;;;;;5071893;27;45399;-72
2023/09/26 03:38:03;;;;;;;;;9.67;9.67;;;;;;;;5082938;27;45350;-72
2023/09/26 03:40:28;;;;;;;;;16.67;14.67;;;;;;;;5084267;27;45667;-73
2023/09/26 03:42:54;;;;;;;;;17.67;13.00;;;;;;;;5077874;27;45230;-74
2023/09/26 03:45:19;;;;;;;;;18.67;12.00;;;;;;;;5079135;27;45679;-73
2023/09/26 03:47:45;;;;;;;;;10.67;10.67;;;;;;;;5079560;27;45534;-73
2023/09/26 03:50:10;;;;;;;;;12.33;11.33;;;;;;;;5086762;27;45608;-72
2023/09/26 03:52:35;;;;;;;;;11.67;10.67;;;;;;;;5077842;27;45656;-74
2023/09/26 03:55:02;;;;;;;;;15.67;11.33;;;;;;;;5080514;27;45763;-73
2023/09/26 03:57:29;;;;;;;;;15.33;15.00;;;;;;;;5077519;27;45526;-75
2023/09/26 03:59:55;;;;;;;;;15.00;10.33;;;;;;;;5076901;27;45599;-72
2023/09/26 04:02:21;;;;;;;;;15.67;14.33;;;;;;;;5090354;27;45340;-74
2023/09/26 04:04:46;;;;;;;;;16.33;12.33;;;;;;;;5093019;27;45392;-74
2023/09/26 04:07:12;;;;;;;;;14.00;10.67;;;;;;;;5085042;27;47460;-75
2023/09/26 04:09:37;;;;;;;;;1.33;0.33;;;;;;;;5085658;27;45333;-73
2023/09/26 04:12:03;;;;;;;;;11.00;10.67;;;;;;;;5085112;27;45387;-75
2023/09/26 04:14:28;;;;;;;;;15.00;12.00;;;;;;;;5084577;27;45466;-73
2023/09/26 04:16:54;;;;;;;;;14.33;11.33;;;;;;;;5077858;27;47032;-74
2023/09/26 04:19:19;;;;;;;;;14.33;13.67;;;;;;;;5076306;27;45442;-72
2023/09/26 04:21:44;;;;;;;;;13.67;12.67;;;;;;;;5090858;27;45604;-75
2023/09/26 04:24:10;;;;;;;;;15.33;11.67;;;;;;;;5083854;27;46553;-77
2023/09/26 04:26:35;;;;;;;;;13.33;12.00;;;;;;;;5088456;27;45964;-75
2023/09/26 04:29:00;;;;;;;;;58.67;44.00;;;;;;;;5085197;27;45723;-76
2023/09/26 04:31:26;;;;;;;;;201.50;159.50;;;;;;;;5086791;27;45769;-78
2023/09/26 04:33:51;;;;;;;;;17.00;12.00;;;;;;;;5080363;27;45462;-77
2023/09/26 04:36:17;;;;;;;;;11.00;9.00;;;;;;;;5078516;27;47070;-77
2023/09/26 04:38:42;;;;;;;;;12.67;10.67;;;;;;;;5080622;27;46285;-77
2023/09/26 04:41:08;;;;;;;;;17.33;9.67;;;;;;;;5083725;27;45475;-77
2023/09/26 04:43:33;;;;;;;;;12.67;9.33;;;;;;;;5082429;27;45752;-78
2023/09/26 04:45:59;;;;;;;;;12.33;8.67;;;;;;;;5078549;27;47395;-75
2023/09/26 04:48:25;;;;;;;;;8.67;8.67;;;;;;;;5079867;27;45867;-76
2023/09/26 04:50:50;;;;;;;;;13.67;11.33;;;;;;;;5089755;27;45359;-76
2023/09/26 04:53:15;;;;;;;;;10.67;10.67;;;;;;;;5074744;27;45340;-78
2023/09/26 04:55:44;;;;;;;;;9.00;8.33;;;;;;;;5074626;27;45405;-78
2023/09/26 04:58:09;;;;;;;;;13.33;11.00;;;;;;;;5076254;27;45403;-77
2023/09/26 05:00:36;;;;;;;;;10.67;10.00;;;;;;;;5079002;27;45860;-79
2023/09/26 05:03:01;;;;;;;;;12.00;9.67;;;;;;;;5082680;27;45539;-75
2023/09/26 05:05:27;;;;;;;;;12.33;10.33;;;;;;;;5080027;27;46794;-77
2023/09/26 05:07:53;;;;;;;;;11.33;9.67;;;;;;;;5076744;27;45778;-74
2023/09/26 05:10:19;;;;;;;;;10.33;9.00;;;;;;;;5072300;27;45457;-72
2023/09/26 05:12:44;;;;;;;;;12.67;11.33;;;;;;;;5080799;27;46041;-74
2023/09/26 05:15:12;;;;;;;;;10.67;10.67;;;;;;;;5086996;27;47025;-73
2023/09/26 05:17:38;;;;;;;;;15.67;11.33;;;;;;;;5074785;27;45740;-76
2023/09/26 05:20:07;;;;;;;;;11.00;8.33;;;;;;;;5072825;27;45433;-76
2023/09/26 05:22:33;;;;;;;;;10.67;9.67;;;;;;;;5073012;27;45808;-78
2023/09/26 05:24:58;;;;;;;;;14.33;12.00;;;;;;;;5080303;27;45845;-77
2023/09/26 05:27:23;;;;;;;;;11.67;9.33;;;;;;;;5073549;27;45569;-73
2023/09/26 05:29:49;;;;;;;;;13.67;10.67;;;;;;;;5072230;27;45448;-75
2023/09/26 05:32:14;;;;;;;;;11.67;9.00;;;;;;;;5095426;27;45824;-75
2023/09/26 05:34:39;;;;;;;;;13.00;9.00;;;;;;;;5082873;27;45987;-78
2023/09/26 05:37:04;;;;;;;;;15.33;10.33;;;;;;;;5081903;27;45939;-77
2023/09/26 05:39:30;;;;;;;;;10.67;10.67;;;;;;;;5090672;27;45700;-76
2023/09/26 05:41:55;;;;;;;;;11.67;11.67;;;;;;;;5077025;27;45518;-76
2023/09/26 05:44:20;;;;;;;;;12.00;9.67;;;;;;;;5087361;27;45742;-75
2023/09/26 05:46:45;;;;;;;;;11.00;9.67;;;;;;;;5090106;27;45674;-76
2023/09/26 05:49:11;;;;;;;;;9.33;8.33;;;;;;;;5085525;27;45288;-74
2023/09/26 05:51:36;;;;;;;;;9.33;8.33;;;;;;;;5091757;27;45715;-80
2023/09/26 05:54:01;;;;;;;;;10.00;10.00;;;;;;;;5079433;27;48497;-80
2023/09/26 05:56:27;;;;;;;;;10.67;8.67;;;;;;;;5097812;27;45648;-81
2023/09/26 05:58:52;;;;;;;;;9.67;6.00;;;;;;;;5088042;27;45735;-80
2023/09/26 06:01:18;;;;;;;;;10.33;10.00;;;;;;;;5082827;27;45443;-80
2023/09/26 06:03:43;;;;;;;;;17.33;9.67;;;;;;;;5091271;27;48364;-80
2023/09/26 06:06:08;;;;;;;;;13.33;11.33;;;;;;;;5089810;27;45400;-81
2023/09/26 06:08:34;;;;;;;;;17.00;15.00;;;;;;;;5091971;27;45790;-81
2023/09/26 06:11:00;;;;;;;;;11.67;9.00;;;;;;;;5090658;27;45407;-79
2023/09/26 06:13:25;;;;;;;;;9.67;9.00;;;;;;;;5082896;27;45420;-81
2023/09/26 06:15:51;;;;;;;;;14.67;12.67;;;;;;;;5075664;27;45569;-81
2023/09/26 06:18:16;;;;;;;;;13.67;11.33;;;;;;;;5082081;27;45588;-80
2023/09/26 06:20:44;;;;;;;;;14.00;10.00;;;;;;;;5081310;27;45809;-79
2023/09/26 06:23:09;;;;;;;;;18.00;11.00;;;;;;;;5086796;27;46133;-81
2023/09/26 06:25:34;;;;;;;;;11.33;10.33;;;;;;;;5086994;27;45383;-80
2023/09/26 06:28:00;;;;;;;;;9.67;9.33;;;;;;;;5088771;27;45344;-79
2023/09/26 06:30:25;;;;;;;;;11.33;11.33;;;;;;;;5080370;27;45752;-80
2023/09/26 06:32:50;;;;;;;;;15.00;10.33;;;;;;;;5084258;27;46613;-79
2023/09/26 06:35:15;;;;;;;;;10.67;10.33;;;;;;;;5095023;27;45653;-78
2023/09/26 06:37:41;;;;;;;;;12.33;11.67;;;;;;;;5087216;27;46184;-78
2023/09/26 06:40:06;;;;;;;;;10.00;9.33;;;;;;;;5081696;27;46318;-78
2023/09/26 06:42:32;;;;;;;;;8.67;7.33;;;;;;;;5080197;27;46585;-79
2023/09/26 06:45:00;;;;;;;;;6.33;5.00;;;;;;;;5083567;27;45762;-78
2023/09/26 06:47:26;;;;;;;;;18.00;13.00;;;;;;;;5086498;27;45487;-79
2023/09/26 06:49:52;;;;;;;;;14.33;11.33;;;;;;;;5095333;27;45442;-81
2023/09/26 06:52:18;;;;;;;;;7.67;7.67;;;;;;;;5093951;27;45571;-79
2023/09/26 06:54:43;;;;;;;;;13.33;13.33;;;;;;;;5096999;27;45850;-80
2023/09/26 06:57:09;;;;;;;;;11.33;10.00;;;;;;;;5088007;27;45341;-78
2023/09/26 06:59:35;;;;;;;;;16.33;12.33;;;;;;;;5084247;27;45826;-73
2023/09/26 07:02:00;;;;;;;;;8.33;6.33;;;;;;;;5076066;27;46008;-77
2023/09/26 07:04:25;;;;;;;;;16.33;14.00;;;;;;;;5092093;27;45406;-77
2023/09/26 07:06:51;;;;;;;;;10.33;10.33;;;;;;;;5082023;27;45697;-79
2023/09/26 07:09:16;;;;;;;;;20.33;12.00;;;;;;;;5084175;27;45514;-81
2023/09/26 07:11:42;;;;;;;;;13.00;13.00;;;;;;;;5076774;27;47054;-79
2023/09/26 07:14:07;;;;;;;;;13.33;13.33;;;;;;;;5073626;27;45397;-81
2023/09/26 07:16:33;;;;;;;;;18.00;14.00;;;;;;;;5076308;27;45903;-79
2023/09/26 07:18:59;;;;;;;;;13.33;11.33;;;;;;;;5075016;28;45551;-81
2023/09/26 07:21:24;;;;;;;;;18.33;15.00;;;;;;;;5088917;27;46973;-79
2023/09/26 07:23:50;;;;;;;;;14.33;14.33;;;;;;;;5079410;27;45477;-78
2023/09/26 07:26:17;;;;;;;;;19.33;14.67;;;;;;;;5082045;27;45576;-78
2023/09/26 07:28:43;;;;;;;;;13.00;13.00;;;;;;;;5081819;27;45878;-78
2023/09/26 07:31:11;;;;;;;;;13.67;12.67;;;;;;;;5075802;27;45539;-78
2023/09/26 07:33:37;;;;;;;;;15.67;13.67;;;;;;;;5069968;27;45550;-78
2023/09/26 07:36:03;;;;;;;;;17.33;16.00;;;;;;;;5083988;27;45431;-78
2023/09/26 07:38:29;;;;;;;;;15.00;15.00;;;;;;;;5060343;27;45666;-75
2023/09/26 07:40:55;;;;;;;;;22.67;12.00;;;;;;;;5073667;27;45596;-79
2023/09/26 07:43:20;;;;;;;;;18.67;16.33;;;;;;;;5087745;27;45484;-79
2023/09/26 07:45:45;;;;;;;;;12.00;12.00;;;;;;;;5089400;27;45328;-80
2023/09/26 07:48:11;;;;;;;;;18.00;14.00;;;;;;;;5071360;27;45617;-79
2023/09/26 07:50:36;;;;;;;;;16.67;15.00;;;;;;;;5069120;27;45357;-79
2023/09/26 07:53:01;;;;;;;;;18.67;13.33;;;;;;;;5076755;27;45311;-79
2023/09/26 07:55:26;;;;;;;;;15.67;13.67;;;;;;;;5076928;27;45593;-78
2023/09/26 07:57:52;;;;;;;;;17.00;12.33;;;;;;;;5076030;27;46593;-79
2023/09/26 08:00:17;;;;;;;;;12.67;12.67;;;;;;;;5062958;27;46239;-78
2023/09/26 08:02:43;;;;;;;;;17.00;13.00;;;;;;;;5071565;27;45500;-80
2023/09/26 08:05:08;;;;;;;;;9.67;9.00;;;;;;;;5070666;27;45566;-78
2023/09/26 08:07:34;;;;;;;;;11.00;10.33;;;;;;;;5067300;27;45455;-79
2023/09/26 08:10:00;;;;;;;;;10.67;10.00;;;;;;;;5086587;27;45639;-80
2023/09/26 08:12:29;;;;;;;;;10.00;8.75;;;;;;;;5077965;27;45794;-78
2023/09/26 08:14:55;;;;;;;;;9.67;9.33;;;;;;;;5065575;27;45885;-79
2023/09/26 08:17:20;;;;;;;;;12.67;11.67;;;;;;;;5077706;27;45506;-78
2023/09/26 08:19:45;;;;;;;;;10.00;8.00;;;;;;;;5074470;27;45625;-74
2023/09/26 08:22:11;;;;;;;;;10.00;9.33;;;;;;;;5075957;27;45835;-78
2023/09/26 08:24:36;;;;;;;;;11.67;7.67;;;;;;;;5106520;27;45659;-78
2023/09/26 08:27:01;;;;;;;;;4.00;4.00;;;;;;;;5064755;28;45489;-79
2023/09/26 08:29:27;;;;;;;;;9.67;7.33;;;;;;;;5072364;27;45805;-78
2023/09/26 08:31:52;;;;;;;;;7.33;7.00;;;;;;;;5077151;27;45450;-78
2023/09/26 08:34:18;;;;;;;;;8.67;8.67;;;;;;;;5086258;27;45855;-79
2023/09/26 08:36:43;;;;;;;;;8.25;7.00;;;;;;;;5083075;27;45418;-78
2023/09/26 08:39:08;;;;;;;;;8.33;8.33;;;;;;;;5081660;27;46354;-79
2023/09/26 08:41:35;;;;;;;;;8.50;8.50;;;;;;;;5075684;27;45439;-78
2023/09/26 08:44:00;;;;;;;;;9.50;7.00;;;;;;;;5081453;27;45636;-77
2023/09/26 08:46:26;;;;;;;;;9.00;8.67;;;;;;;;5086479;27;45649;-78
2023/09/26 08:48:54;;;;;;;;;8.75;8.00;;;;;;;;5089492;27;47205;-78
2023/09/26 08:51:19;;;;;;;;;11.50;8.50;;;;;;;;5082505;27;45322;-79
2023/09/26 08:53:44;;;;;;;;;8.25;7.75;;;;;;;;5075706;27;45273;-79
2023/09/26 08:56:10;;;;;;;;;10.00;7.00;;;;;;;;5057512;27;45368;-77
2023/09/26 08:58:36;;;;;;;;;7.75;7.00;;;;;;;;5060723;27;46222;-78
2023/09/26 09:01:02;;;;;;;;;11.00;7.00;;;;;;;;5067247;27;45489;-78
2023/09/26 09:03:28;;;;;;;;;8.25;6.75;;;;;;;;5063885;27;45444;-79
2023/09/26 09:05:53;;;;;;;;;5.50;5.50;;;;;;;;5054543;27;45736;-79
2023/09/26 09:08:19;;;;;;;;;13.50;9.25;;;;;;;;5069506;27;45736;-78
2023/09/26 09:10:52;;;;;;;;;8.75;7.00;;;;;;;;5083726;27;45522;-79
2023/09/26 09:13:27;;;;;;;;;10.25;9.00;;;;;;;;5087677;27;45785;-80
2023/09/26 09:16:05;;;;;;;;;12.50;9.00;;;;;;;;5084188;27;46341;-78
2023/09/26 09:18:30;;;;;;;;;10.00;10.00;;;;;;;;5074934;27;46282;-78
2023/09/26 09:20:56;;;;;;;;;13.50;11.00;;;;;;;;5073134;27;45426;-78
2023/09/26 09:23:21;;;;;;;;;7.25;7.25;;;;;;;;5093201;27;45813;-77
2023/09/26 09:25:50;;;;;;;;;15.67;12.00;;;;;;;;5087698;27;45680;-78
2023/09/26 09:28:18;;;;;;;;;10.25;9.00;;;;;;;;5081736;27;46905;-78
2023/09/26 09:30:44;;;;;;;;;9.50;8.50;;;;;;;;5080915;27;45895;-77
2023/09/26 09:33:09;;;;;;;;;6.50;6.50;;;;;;;;5076108;27;45441;-78
2023/09/26 09:35:35;;;;;;;;;10.25;8.50;;;;;;;;5077367;27;45468;-79
2023/09/26 09:38:02;;;;;;;;;11.50;8.50;;;;;;;;5069635;27;45922;-78
2023/09/26 09:40:27;;;;;;;;;11.00;10.00;;;;;;;;5077204;27;45408;-78
2023/09/26 09:42:53;;;;;;;;;9.75;8.25;;;;;;;;5077952;27;45637;-78
2023/09/26 09:45:18;;;;;;;;;9.25;9.25;;;;;;;;5080076;27;45706;-77
2023/09/26 09:47:48;;;;;;;;;12.25;10.50;;;;;;;;5085264;27;45437;-80
2023/09/26 09:50:14;;;;;;;;;9.50;9.50;;;;;;;;5091340;27;45856;-78
2023/09/26 09:52:48;;;;;;;;;7.00;7.00;;;;;;;;5081424;27;45451;-79
2023/09/26 09:55:20;;;;;;;;;8.00;7.00;;;;;;;;5072946;27;45376;-80
2023/09/26 09:57:53;;;;;;;;;13.50;9.00;;;;;;;;5087767;27;45443;-80
2023/09/26 10:00:19;;;;;;;;;6.50;6.50;;;;;;;;5065027;27;45401;-79
2023/09/26 10:02:45;;;;;;;;;9.25;9.25;;;;;;;;5075273;27;45664;-80
2023/09/26 10:05:12;;;;;;;;;8.00;8.00;;;;;;;;5084152;27;45884;-75
2023/09/26 10:07:43;;;;;;;;;10.50;7.75;;;;;;;;5081832;27;45605;-79
2023/09/26 10:10:09;;;;;;;;;12.00;10.00;;;;;;;;5078701;27;45394;-72
2023/09/26 10:12:38;;;;;;;;;8.75;6.75;;;;;;;;5083959;27;45372;-81
2023/09/26 10:15:06;;;;;;;;;8.75;8.75;;;;;;;;5116311;27;48218;-77
2023/09/26 10:17:32;;;;;;;;;7.25;7.25;;;;;;;;5076354;27;47151;-80
2023/09/26 10:19:57;;;;;;;;;8.75;7.50;;;;;;;;5077299;27;45701;-79
2023/09/26 10:22:32;;;;;;;;;6.25;6.25;;;;;;;;5070215;27;46201;-78
2023/09/26 10:25:00;;;;;;;;;6.25;5.00;;;;;;;;5086693;27;45797;-78
2023/09/26 10:27:31;;;;;;;;;7.00;7.00;;;;;;;;5083119;27;45814;-80
2023/09/26 10:29:56;;;;;;;;;4.60;4.60;;;;;;;;5067168;27;45921;-78
2023/09/26 10:32:29;;;;;;;;;7.00;7.00;;;;;;;;5081070;27;45894;-77
2023/09/26 10:34:56;;;;;;;;;8.50;6.00;;;;;;;;5069191;27;45435;-80
2023/09/26 10:37:21;;;;;;;;;6.25;6.25;;;;;;;;5070369;27;46841;-79
2023/09/26 10:39:47;;;;;;;;;6.50;6.25;;;;;;;;5076321;27;45719;-81
2023/09/26 10:42:12;;;;;;;;;10.50;8.50;;;;;;;;5074791;27;45785;-78
2023/09/26 10:44:38;;;;;;;;;10.00;10.00;;;;;;;;5071831;27;45702;-79
2023/09/26 10:47:04;;;;;;;;;4.75;4.75;;;;;;;;5079546;27;46431;-79
2023/09/26 10:49:31;;;;;;;;;7.00;7.00;;;;;;;;5083750;27;45893;-78
2023/09/26 10:51:56;;;;;;;;;7.50;6.00;;;;;;;;5096061;27;45765;-77
2023/09/26 10:54:21;;;;;;;;;5.75;5.75;;;;;;;;5070527;27;46265;-77
2023/09/26 10:56:52;;;;;;;;;8.50;6.00;;;;;;;;5069479;27;45746;-79
2023/09/26 10:59:18;;;;;;;;;6.50;6.50;;;;;;;;5084033;27;45643;-79
2023/09/26 11:01:45;;;;;;;;;7.75;7.00;;;;;;;;5073741;27;45698;-80
2023/09/26 11:04:11;;;;;;;;;3.25;3.25;;;;;;;;5075469;27;46058;-79
2023/09/26 11:06:37;;;;;;;;;7.25;7.25;;;;;;;;5077074;27;46692;-79
2023/09/26 11:09:03;;;;;;;;;2.75;2.75;;;;;;;;5078535;27;46091;-79
2023/09/26 11:11:28;;;;;;;;;7.00;6.00;;;;;;;;5074430;27;45773;-81
2023/09/26 11:14:01;;;;;;;;;6.25;5.75;;;;;;;;5076951;27;45704;-79
2023/09/26 11:16:32;;;;;;;;;6.75;5.00;;;;;;;;5104202;27;45422;-75
2023/09/26 11:18:58;;;;;;;;;7.75;6.25;;;;;;;;5064952;27;45656;-80
2023/09/26 11:21:23;;;;;;;;;6.25;5.00;;;;;;;;5070423;27;45368;-79
2023/09/26 11:23:48;;;;;;;;;5.50;5.50;;;;;;;;5083893;27;45721;-78
2023/09/26 11:26:13;;;;;;;;;5.00;5.00;;;;;;;;5083545;27;46589;-80
2023/09/26 11:28:39;;;;;;;;;6.50;4.50;;;;;;;;5076158;27;45478;-79
2023/09/26 11:31:04;;;;;;;;;5.00;5.00;;;;;;;;5088226;27;45474;-79
2023/09/26 11:33:30;;;;;;;;;7.25;6.00;;;;;;;;5063444;27;45787;-80
2023/09/26 11:35:55;;;;;;;;;7.50;4.75;;;;;;;;5074536;27;46242;-80
2023/09/26 11:38:21;;;;;;;;;7.25;4.50;;;;;;;;5074882;27;45356;-79
2023/09/26 11:40:46;;;;;;;;;8.00;6.50;;;;;;;;5073440;27;45376;-80
2023/09/26 11:43:11;;;;;;;;;7.50;6.00;;;;;;;;5075561;27;45443;-80
2023/09/26 11:45:40;;;;;;;;;6.50;5.50;;;;;;;;5106975;27;47031;-79
2023/09/26 11:48:05;;;;;;;;;7.75;6.25;;;;;;;;5083866;27;45742;-80
2023/09/26 11:50:30;;;;;;;;;4.50;4.50;;;;;;;;5085195;27;45589;-75
2023/09/26 11:53:02;;;;;;;;;6.50;5.25;;;;;;;;5085236;27;45447;-76
2023/09/26 11:55:29;;;;;;;;;8.25;6.50;;;;;;;;5070209;27;46127;-77
2023/09/26 11:57:55;;;;;;;;;4.50;3.75;;;;;;;;5059997;27;45853;-75
2023/09/26 12:00:21;;;;;;;;;5.00;5.00;;;;;;;;5091589;27;45717;-78
2023/09/26 12:02:47;;;;;;;;;6.25;4.75;;;;;;;;5081600;27;45776;-78
2023/09/26 12:05:13;;;;;;;;;5.50;5.25;;;;;;;;5074575;27;45368;-81
2023/09/26 12:07:41;;;;;;;;;6.25;6.00;;;;;;;;5078463;27;45375;-80
2023/09/26 12:10:08;;;;;;;;;6.00;6.00;;;;;;;;5070954;27;46017;-80
2023/09/26 12:12:33;;;;;;;;;7.00;5.00;;;;;;;;5078122;27;45360;-80
2023/09/26 12:15:14;;;;;;;;;9.25;6.00;;;;;;;;5084334;27;45366;-78
2023/09/26 12:17:39;;;;;;;;;5.75;4.00;;;;;;;;5077274;27;45640;-80
2023/09/26 12:20:07;;;;;;;;;6.00;6.00;;;;;;;;5075609;27;45705;-80
2023/09/26 12:22:33;;;;;;;;;6.75;4.00;;;;;;;;5087279;27;45358;-79
2023/09/26 12:24:58;;;;;;;;;4.50;4.50;;;;;;;;5093688;27;45473;-78
2023/09/26 12:27:24;;;;;;;;;6.00;6.00;;;;;;;;5073732;27;45706;-80
2023/09/26 12:29:49;;;;;;;;;3.75;3.25;;;;;;;;5080452;27;45379;-80
2023/09/26 12:32:14;;;;;;;;;7.50;6.50;;;;;;;;5079283;27;45641;-81
2023/09/26 12:34:40;;;;;;;;;4.50;3.25;;;;;;;;5081160;27;45823;-79
2023/09/26 12:37:05;;;;;;;;;5.00;4.00;;;;;;;;5073170;27;45551;-78
2023/09/26 12:39:30;;;;;;;;;3.75;3.75;;;;;;;;5078092;27;45478;-80
2023/09/26 12:41:56;;;;;;;;;3.25;3.25;;;;;;;;5069001;28;45846;-80
2023/09/26 12:44:21;;;;;;;;;5.00;3.75;;;;;;;;5071941;27;46900;-80
2023/09/26 12:46:46;;;;;;;;;8.00;4.25;;;;;;;;5072006;27;45699;-80
2023/09/26 12:49:12;;;;;;;;;5.75;3.50;;;;;;;;5066032;27;45357;-78
2023/09/26 12:51:37;;;;;;;;;4.25;3.00;;;;;;;;5092104;27;45610;-80
2023/09/26 12:54:03;;;;;;;;;5.75;4.25;;;;;;;;5074834;27;46318;-81
2023/09/26 12:56:28;;;;;;;;;4.50;4.00;;;;;;;;5089002;27;45662;-80
2023/09/26 12:58:53;;;;;;;;;5.00;4.00;;;;;;;;5085343;27;45998;-71
2023/09/26 13:01:18;;;;;;;;;3.00;3.00;;;;;;;;5087589;27;45400;-69
2023/09/26 13:03:44;;;;;;;;;3.75;3.75;;;;;;;;5082759;27;46375;-70
2023/09/26 13:06:09;;;;;;;;;3.50;3.50;;;;;;;;5080607;27;45701;-70
2023/09/26 13:08:34;;;;;;;;;5.00;5.00;;;;;;;;5074579;27;45646;-72
2023/09/26 13:10:59;;;;;;;;;4.75;4.75;;;;;;;;5074586;27;45437;-68
2023/09/26 13:13:24;;;;;;;;;4.25;3.25;;;;;;;;5078851;27;46011;-70
2023/09/26 13:15:50;;;;;;;;;4.50;3.25;;;;;;;;5075229;27;45237;-70
2023/09/26 13:18:16;;;;;;;;;5.25;4.25;;;;;;;;5065530;27;45898;-70
2023/09/26 13:20:41;;;;;;;;;8.50;6.50;;;;;;;;5072321;27;45453;-70
2023/09/26 13:23:07;;;;;;;;;5.00;4.00;;;;;;;;5077637;27;45347;-70
2023/09/26 13:25:32;;;;;;;;;5.25;5.25;;;;;;;;5077747;27;45822;-70
2023/09/26 13:27:57;;;;;;;;;4.00;4.00;;;;;;;;5079894;27;45729;-70
2023/09/26 13:30:23;;;;;;;;;2.00;2.00;;;;;;;;5074691;27;45542;-71
2023/09/26 13:32:48;;;;;;;;;5.00;5.00;;;;;;;;5070192;27;47083;-71
2023/09/26 13:35:13;;;;;;;;;5.00;4.75;;;;;;;;5085294;27;45718;-71
2023/09/26 13:37:39;;;;;;;;;5.00;5.00;;;;;;;;5078292;27;45414;-70
2023/09/26 13:40:04;;;;;;;;;4.50;4.00;;;;;;;;5068887;27;45799;-70
2023/09/26 13:42:30;;;;;;;;;4.25;3.25;;;;;;;;5071144;27;45540;-70
2023/09/26 13:44:55;;;;;;;;;7.00;4.00;;;;;;;;5072591;28;45447;-70
2023/09/26 13:47:20;;;;;;;;;4.50;3.50;;;;;;;;5085237;27;45765;-70
2023/09/26 13:49:45;;;;;;;;;3.50;3.50;;;;;;;;5078371;27;45659;-70
2023/09/26 13:52:11;;;;;;;;;7.25;4.25;;;;;;;;5084817;27;45486;-71
2023/09/26 13:54:36;;;;;;;;;4.00;4.00;;;;;;;;5091968;27;45864;-71
2023/09/26 13:57:01;;;;;;;;;8.00;6.00;;;;;;;;5089614;27;45691;-73
2023/09/26 13:59:27;;;;;;;;;4.75;4.75;;;;;;;;5073697;27;45747;-75
2023/09/26 14:01:52;;;;;;;;;4.75;4.75;;;;;;;;5074059;27;45851;-72
2023/09/26 14:04:17;;;;;;;;;1.50;1.50;;;;;;;;5073283;27;45562;-70
2023/09/26 14:06:43;;;;;;;;;4.25;4.00;;;;;;;;5070908;27;45399;-71
2023/09/26 14:09:08;;;;;;;;;4.75;4.50;;;;;;;;5105745;27;45976;-71
2023/09/26 14:11:33;;;;;;;;;12.75;8.00;;;;;;;;5092780;27;46784;-71
2023/09/26 14:13:59;;;;;;;;;6.75;6.50;;;;;;;;5081150;27;45386;-72
2023/09/26 14:16:24;;;;;;;;;6.50;5.00;;;;;;;;5075278;27;45355;-69
2023/09/26 14:18:50;;;;;;;;;4.50;4.25;;;;;;;;5080935;27;46049;-71
2023/09/26 14:21:17;;;;;;;;;3.00;3.00;;;;;;;;5081220;27;46428;-71
2023/09/26 14:23:43;;;;;;;;;6.25;6.25;;;;;;;;5083563;27;46140;-69